createdAt,value
2022-12-25T00:02:32.477Z,100.00
2022-12-25T00:05:39.551Z,100.00
2022-12-25T00:08:43.673Z,100.00
2022-12-25T00:11:47.776Z,100.00
2022-12-25T00:14:50.333Z,100.00
2022-12-25T00:17:54.490Z,100.00
2022-12-25T00:21:03.129Z,100.00
2022-12-25T00:24:06.430Z,100.00
2022-12-25T00:27:10.947Z,100.00
2022-12-25T00:30:14.385Z,100.00
2022-12-25T00:33:17.931Z,100.00
2022-12-25T00:36:22.727Z,100.00
2022-12-25T00:39:25.378Z,100.00
2022-12-25T00:42:28.576Z,100.00
2022-12-25T00:45:35.342Z,100.00
2022-12-25T00:48:40.396Z,100.00
2022-12-25T00:51:43.058Z,100.00
2022-12-25T00:54:46.184Z,100.00
2022-12-25T00:57:50.419Z,100.00
2022-12-25T01:00:53.529Z,100.00
2022-12-25T01:03:56.322Z,100.00
2022-12-25T01:06:59.776Z,99.69
2022-12-25T01:10:23.587Z,99.50
2022-12-25T01:13:27.144Z,99.36
2022-12-25T01:16:30.817Z,99.18
2022-12-25T01:19:33.857Z,99.17
2022-12-25T01:22:38.358Z,99.17
2022-12-25T01:25:41.313Z,99.24
2022-12-25T01:28:44.211Z,99.27
2022-12-25T01:31:48.802Z,99.50
2022-12-25T01:34:55.858Z,99.54
2022-12-25T01:37:59.808Z,99.70
2022-12-25T01:41:02.565Z,99.75
2022-12-25T01:44:29.499Z,99.83
2022-12-25T01:47:32.606Z,99.91
2022-12-25T01:50:39.564Z,99.92
2022-12-25T01:53:42.095Z,99.94
2022-12-25T01:56:48.082Z,99.86
2022-12-25T01:59:52.306Z,99.81
2022-12-25T02:02:56.559Z,99.52
2022-12-25T02:06:04.311Z,99.58
2022-12-25T02:09:07.390Z,99.61
2022-12-25T02:12:34.321Z,99.63
2022-12-25T02:16:08.630Z,99.71
2022-12-25T02:19:38.640Z,99.80
2022-12-25T02:23:05.984Z,99.70
2022-12-25T02:26:13.619Z,99.54
2022-12-25T02:29:42.288Z,99.41
2022-12-25T02:33:18.923Z,99.38
2022-12-25T02:36:25.536Z,99.42
2022-12-25T02:39:59.270Z,99.52
2022-12-25T02:43:36.593Z,99.70
2022-12-25T02:46:57.899Z,99.90
2022-12-25T02:50:20.021Z,100.00
2022-12-25T02:53:41.629Z,100.00
2022-12-25T02:57:07.377Z,100.00
2022-12-25T03:00:32.145Z,100.00
2022-12-25T03:03:59.309Z,100.00
2022-12-25T03:07:10.130Z,100.00
2022-12-25T03:10:33.878Z,100.00
2022-12-25T03:13:40.004Z,100.00
2022-12-25T03:16:52.337Z,100.00
2022-12-25T03:20:13.990Z,100.00
2022-12-25T03:23:40.618Z,100.00
2022-12-25T03:26:57.070Z,100.00
2022-12-25T03:30:18.598Z,100.00
2022-12-25T03:34:18.229Z,100.00
2022-12-25T03:37:44.290Z,100.00
2022-12-25T03:41:14.994Z,100.00
2022-12-25T03:44:48.521Z,100.00
2022-12-25T03:48:13.567Z,100.00
2022-12-25T03:51:39.287Z,100.00
2022-12-25T03:55:02.651Z,100.00
2022-12-25T03:58:23.801Z,100.00
2022-12-25T04:01:50.043Z,100.00
2022-12-25T04:05:12.518Z,100.00
2022-12-25T04:08:34.009Z,100.00
2022-12-25T04:12:02.049Z,100.00
2022-12-25T04:15:24.755Z,100.00
2022-12-25T04:18:46.623Z,100.00
2022-12-25T04:22:08.663Z,100.00
2022-12-25T04:25:30.420Z,100.00
2022-12-25T04:28:52.340Z,100.00
2022-12-25T04:32:14.619Z,100.00
2022-12-25T04:35:35.720Z,100.00
2022-12-25T04:38:40.280Z,100.00
2022-12-25T04:41:46.004Z,100.00
2022-12-25T04:44:50.518Z,100.00
2022-12-25T04:47:53.321Z,100.00
2022-12-25T04:50:57.264Z,100.00
2022-12-25T04:54:00.453Z,100.00
2022-12-25T04:57:04.034Z,100.00
2022-12-25T05:00:09.055Z,100.00
2022-12-25T05:03:12.283Z,100.00
2022-12-25T05:06:15.209Z,100.00
2022-12-25T05:09:21.851Z,100.00
2022-12-25T05:12:26.579Z,100.00
2022-12-25T05:15:30.643Z,100.00
2022-12-25T05:18:33.904Z,100.00
2022-12-25T05:21:37.283Z,100.00
2022-12-25T05:24:39.844Z,100.00
2022-12-25T05:27:42.662Z,100.00
2022-12-25T05:30:45.835Z,100.00
2022-12-25T05:33:51.580Z,100.00
2022-12-25T05:36:54.125Z,100.00
2022-12-25T05:39:59.819Z,100.00
2022-12-25T05:43:02.757Z,100.00
2022-12-25T05:46:07.479Z,100.00
2022-12-25T05:49:10.542Z,100.00
2022-12-25T05:52:19.590Z,100.00
2022-12-25T05:55:22.832Z,100.00
2022-12-25T05:58:28.623Z,100.00
2022-12-25T06:01:33.296Z,100.00
2022-12-25T06:04:37.604Z,100.00
2022-12-25T06:07:40.628Z,100.00
2022-12-25T06:10:43.853Z,100.00
2022-12-25T06:13:52.875Z,100.00
2022-12-25T06:16:56.615Z,100.00
2022-12-25T06:20:00.774Z,100.00
2022-12-25T06:23:10.350Z,100.00
2022-12-25T06:26:17.135Z,100.00
2022-12-25T06:29:20.342Z,100.00
2022-12-25T06:32:25.243Z,100.00
2022-12-25T06:35:28.401Z,100.00
2022-12-25T06:38:31.791Z,100.00
2022-12-25T06:41:35.911Z,100.00
2022-12-25T06:44:41.288Z,100.00
2022-12-25T06:47:44.367Z,100.00
2022-12-25T06:50:55.200Z,100.00
2022-12-25T06:54:04.788Z,100.00
2022-12-25T06:57:10.006Z,100.00
2022-12-25T07:00:15.971Z,100.00
2022-12-25T07:03:30.280Z,99.67
2022-12-25T07:06:35.591Z,96.69
2022-12-25T07:09:43.306Z,95.11
2022-12-25T07:12:54.647Z,93.06
2022-12-25T07:16:05.516Z,91.23
2022-12-25T07:19:12.284Z,88.93
2022-12-25T07:22:19.285Z,87.11
2022-12-25T07:25:25.394Z,85.23
2022-12-25T07:28:34.022Z,83.56
2022-12-25T07:31:40.499Z,81.98
2022-12-25T07:34:46.477Z,81.80
2022-12-25T07:37:51.080Z,80.79
2022-12-25T07:40:57.815Z,80.59
2022-12-25T07:44:02.377Z,79.12
2022-12-25T07:47:15.008Z,80.10
2022-12-25T07:50:19.112Z,78.93
2022-12-25T07:53:32.778Z,80.70
2022-12-25T07:56:35.945Z,80.35
2022-12-25T07:59:51.565Z,79.44
2022-12-25T08:03:02.372Z,79.33
2022-12-25T08:06:13.941Z,77.81
2022-12-25T08:09:24.491Z,78.15
2022-12-25T08:12:27.645Z,76.49
2022-12-25T08:15:32.521Z,74.83
2022-12-25T08:18:45.185Z,77.74
2022-12-25T08:21:49.751Z,79.63
2022-12-25T08:24:57.082Z,80.53
2022-12-25T08:28:07.689Z,79.54
2022-12-25T08:31:20.677Z,78.42
2022-12-25T08:34:27.802Z,79.33
2022-12-25T08:37:39.264Z,80.50
2022-12-25T08:40:51.238Z,79.32
2022-12-25T08:43:54.830Z,78.15
2022-12-25T08:47:00.416Z,77.14
2022-12-25T08:50:07.952Z,76.75
2022-12-25T08:53:10.772Z,76.62
2022-12-25T08:56:15.304Z,77.11
2022-12-25T08:59:22.275Z,77.78
2022-12-25T09:02:32.271Z,77.79
2022-12-25T09:05:40.308Z,78.73
2022-12-25T09:08:50.937Z,78.27
2022-12-25T09:11:55.723Z,77.77
2022-12-25T09:15:07.068Z,78.08
2022-12-25T09:18:12.139Z,76.51
2022-12-25T09:21:17.516Z,74.87
2022-12-25T09:24:25.264Z,73.85
2022-12-25T09:27:29.585Z,72.96
2022-12-25T09:30:32.856Z,72.22
2022-12-25T09:33:36.756Z,71.35
2022-12-25T09:36:39.386Z,71.51
2022-12-25T09:39:46.781Z,72.51
2022-12-25T09:42:49.678Z,72.74
2022-12-25T09:45:52.742Z,72.20
2022-12-25T09:49:22.163Z,72.94
2022-12-25T09:52:44.321Z,72.05
2022-12-25T09:56:25.787Z,74.24
2022-12-25T09:59:30.555Z,74.05
2022-12-25T10:03:04.328Z,74.31
2022-12-25T10:06:23.231Z,73.60
2022-12-25T10:09:55.273Z,73.54
2022-12-25T10:13:17.123Z,73.46
2022-12-25T10:16:57.439Z,73.83
2022-12-25T10:20:41.412Z,73.75
2022-12-25T10:23:58.329Z,73.98
2022-12-25T10:27:12.505Z,74.14
2022-12-25T10:30:24.314Z,74.27
2022-12-25T10:33:31.355Z,74.75
2022-12-25T10:36:37.907Z,75.66
2022-12-25T10:39:47.017Z,76.26
2022-12-25T10:43:10.474Z,76.91
2022-12-25T10:46:20.413Z,77.17
2022-12-25T10:49:39.948Z,77.32
2022-12-25T10:53:17.092Z,78.06
2022-12-25T10:56:24.086Z,78.19
2022-12-25T10:59:58.757Z,77.61
2022-12-25T11:03:23.693Z,77.83
2022-12-25T11:06:30.736Z,77.64
2022-12-25T11:09:38.384Z,76.86
2022-12-25T11:12:51.429Z,76.84
2022-12-25T11:16:09.785Z,76.24
2022-12-25T11:19:39.317Z,75.86
2022-12-25T11:22:45.857Z,75.86
2022-12-25T11:26:07.304Z,75.77
2022-12-25T11:29:48.276Z,75.27
2022-12-25T11:32:56.446Z,75.26
2022-12-25T11:36:21.299Z,75.12
2022-12-25T11:39:30.175Z,75.48
2022-12-25T11:42:50.151Z,75.25
2022-12-25T11:46:05.367Z,75.76
2022-12-25T11:49:15.688Z,75.89
2022-12-25T11:52:23.975Z,76.73
2022-12-25T11:55:58.141Z,76.75
2022-12-25T11:59:18.089Z,76.54
2022-12-25T12:02:30.287Z,76.90
2022-12-25T12:05:45.598Z,77.48
2022-12-25T12:09:20.219Z,77.41
2022-12-25T12:12:49.220Z,77.93
2022-12-25T12:15:58.536Z,78.32
2022-12-25T12:19:34.857Z,78.40
2022-12-25T12:22:39.032Z,77.42
2022-12-25T12:25:46.335Z,77.90
2022-12-25T12:28:51.800Z,78.54
2022-12-25T12:32:06.528Z,78.74
2022-12-25T12:35:19.187Z,78.40
2022-12-25T12:38:30.283Z,78.06
2022-12-25T12:41:48.610Z,78.04
2022-12-25T12:44:59.322Z,78.11
2022-12-25T12:48:15.771Z,77.82
2022-12-25T12:51:34.583Z,77.14
2022-12-25T12:55:03.146Z,78.25
2022-12-25T12:58:25.279Z,77.83
2022-12-25T13:01:28.228Z,77.21
2022-12-25T13:04:56.203Z,76.75
2022-12-25T13:08:31.368Z,76.95
2022-12-25T13:11:40.932Z,77.70
2022-12-25T13:14:49.998Z,77.89
2022-12-25T13:18:08.284Z,77.67
2022-12-25T13:21:19.561Z,77.54
2022-12-25T13:24:30.471Z,77.72
2022-12-25T13:27:47.194Z,78.01
2022-12-25T13:31:19.519Z,77.71
2022-12-25T13:34:33.814Z,78.35
2022-12-25T13:37:37.966Z,78.59
2022-12-25T13:41:09.733Z,78.65
2022-12-25T13:44:27.045Z,78.87
2022-12-25T13:47:39.467Z,79.17
2022-12-25T13:50:48.772Z,79.37
2022-12-25T13:54:08.948Z,79.89
2022-12-25T13:57:21.625Z,80.32
2022-12-25T14:00:56.222Z,80.67
2022-12-25T14:04:00.326Z,81.18
2022-12-25T14:07:27.278Z,81.38
2022-12-25T14:10:39.448Z,81.55
2022-12-25T14:13:54.825Z,81.75
2022-12-25T14:17:01.369Z,82.31
2022-12-25T14:20:09.350Z,82.57
2022-12-25T14:23:16.388Z,82.22
2022-12-25T14:26:31.302Z,82.61
2022-12-25T14:29:51.297Z,82.67
2022-12-25T14:32:58.420Z,82.85
2022-12-25T14:36:06.781Z,83.16
2022-12-25T14:39:29.828Z,83.58
2022-12-25T14:42:35.619Z,83.99
2022-12-25T14:45:43.300Z,84.69
2022-12-25T14:49:06.389Z,85.48
2022-12-25T14:52:23.653Z,86.23
2022-12-25T14:55:47.185Z,86.52
2022-12-25T14:58:59.518Z,86.95
2022-12-25T15:02:03.355Z,87.64
2022-12-25T15:05:25.923Z,87.84
2022-12-25T15:08:35.763Z,88.13
2022-12-25T15:11:42.348Z,88.65
2022-12-25T15:14:47.949Z,88.73
2022-12-25T15:17:54.216Z,89.00
2022-12-25T15:21:01.820Z,88.82
2022-12-25T15:24:13.243Z,88.90
2022-12-25T15:27:21.499Z,89.17
2022-12-25T15:30:35.674Z,89.29
2022-12-25T15:33:44.387Z,89.43
2022-12-25T15:36:57.553Z,89.65
2022-12-25T15:40:12.044Z,90.04
2022-12-25T15:43:40.272Z,90.03
2022-12-25T15:46:47.440Z,90.02
2022-12-25T15:50:10.203Z,90.12
2022-12-25T15:53:27.434Z,90.52
2022-12-25T15:56:37.304Z,90.28
2022-12-25T15:59:44.811Z,90.08
2022-12-25T16:02:53.812Z,89.69
2022-12-25T16:06:03.179Z,89.02
2022-12-25T16:09:13.873Z,88.05
2022-12-25T16:12:18.612Z,88.45
2022-12-25T16:15:32.619Z,88.64
2022-12-25T16:18:47.151Z,88.40
2022-12-25T16:22:00.306Z,87.88
2022-12-25T16:25:19.004Z,87.40
2022-12-25T16:28:27.521Z,87.33
2022-12-25T16:31:40.698Z,87.11
2022-12-25T16:35:00.148Z,87.05
2022-12-25T16:38:14.233Z,86.54
2022-12-25T16:41:28.600Z,86.74
2022-12-25T16:44:36.639Z,87.15
2022-12-25T16:47:41.132Z,86.81
2022-12-25T16:50:52.294Z,86.72
2022-12-25T16:53:57.572Z,86.84
2022-12-25T16:57:02.482Z,87.12
2022-12-25T17:00:20.288Z,87.12
2022-12-25T17:03:40.277Z,87.19
2022-12-25T17:06:50.399Z,87.40
2022-12-25T17:09:57.590Z,87.76
2022-12-25T17:13:02.232Z,87.75
2022-12-25T17:16:26.225Z,87.93
2022-12-25T17:19:40.286Z,88.04
2022-12-25T17:22:45.571Z,88.41
2022-12-25T17:25:51.248Z,88.48
2022-12-25T17:28:58.331Z,88.50
2022-12-25T17:32:02.067Z,88.80
2022-12-25T17:35:08.910Z,88.79
2022-12-25T17:38:17.529Z,88.62
2022-12-25T17:41:23.451Z,88.57
2022-12-25T17:44:37.293Z,88.95
2022-12-25T17:47:44.326Z,89.51
2022-12-25T17:50:53.647Z,90.03
2022-12-25T17:54:07.266Z,90.33
2022-12-25T17:57:22.339Z,90.67
2022-12-25T18:00:30.889Z,90.92
2022-12-25T18:03:41.386Z,91.25
2022-12-25T18:06:59.417Z,91.38
2022-12-25T18:10:09.287Z,91.56
2022-12-25T18:13:16.477Z,91.66
2022-12-25T18:16:23.287Z,91.21
2022-12-25T18:19:36.126Z,91.08
2022-12-25T18:22:51.194Z,90.34
2022-12-25T18:26:02.078Z,90.72
2022-12-25T18:29:13.180Z,90.39
2022-12-25T18:32:27.869Z,89.79
2022-12-25T18:35:45.308Z,89.12
2022-12-25T18:38:53.305Z,88.78
2022-12-25T18:42:20.443Z,88.44
2022-12-25T18:45:43.231Z,88.49
2022-12-25T18:48:48.128Z,88.43
2022-12-25T18:51:53.830Z,88.21
2022-12-25T18:55:20.572Z,88.32
2022-12-25T18:58:26.532Z,88.16
2022-12-25T19:01:34.393Z,87.99
2022-12-25T19:04:44.479Z,87.73
2022-12-25T19:07:57.315Z,87.41
2022-12-25T19:11:13.304Z,87.14
2022-12-25T19:14:19.324Z,87.19
2022-12-25T19:17:31.838Z,86.98
2022-12-25T19:20:41.663Z,87.36
2022-12-25T19:23:52.289Z,87.36
2022-12-25T19:27:17.714Z,87.33
2022-12-25T19:30:23.529Z,87.51
2022-12-25T19:33:36.481Z,87.43
2022-12-25T19:36:46.908Z,87.60
2022-12-25T19:39:52.800Z,87.28
2022-12-25T19:43:10.138Z,87.68
2022-12-25T19:46:28.271Z,88.10
2022-12-25T19:49:37.339Z,88.47
2022-12-25T19:52:52.289Z,88.36
2022-12-25T19:55:59.284Z,88.35
2022-12-25T19:59:15.803Z,88.40
2022-12-25T20:02:20.435Z,88.44
2022-12-25T20:05:28.332Z,88.41
2022-12-25T20:08:38.589Z,88.47
2022-12-25T20:11:43.738Z,88.30
2022-12-25T20:14:51.358Z,88.20
2022-12-25T20:17:58.248Z,88.26
2022-12-25T20:21:09.376Z,88.00
2022-12-25T20:24:20.286Z,88.04
2022-12-25T20:27:24.556Z,88.69
2022-12-25T20:30:44.307Z,88.96
2022-12-25T20:33:50.593Z,89.19
2022-12-25T20:36:58.245Z,89.31
2022-12-25T20:40:05.584Z,89.21
2022-12-25T20:43:09.898Z,88.76
2022-12-25T20:46:22.869Z,88.49
2022-12-25T20:49:32.510Z,88.59
2022-12-25T20:52:37.648Z,88.55
2022-12-25T20:55:47.623Z,88.73
2022-12-25T20:59:02.341Z,88.94
2022-12-25T21:02:34.059Z,89.06
2022-12-25T21:05:49.986Z,89.12
2022-12-25T21:09:01.843Z,89.21
2022-12-25T21:12:07.445Z,89.23
2022-12-25T21:15:19.374Z,89.27
2022-12-25T21:18:25.271Z,89.50
2022-12-25T21:21:32.058Z,89.68
2022-12-25T21:24:36.047Z,89.93
2022-12-25T21:27:41.104Z,89.99
2022-12-25T21:30:45.483Z,89.97
2022-12-25T21:33:56.429Z,90.24
2022-12-25T21:37:07.984Z,90.39
2022-12-25T21:40:16.641Z,90.56
2022-12-25T21:43:28.240Z,90.53
2022-12-25T21:46:33.243Z,90.60
2022-12-25T21:49:56.116Z,90.64
2022-12-25T21:53:02.451Z,90.68
2022-12-25T21:56:08.228Z,90.84
2022-12-25T21:59:21.741Z,90.80
2022-12-25T22:02:26.607Z,90.98
2022-12-25T22:05:52.220Z,90.94
2022-12-25T22:09:00.647Z,91.04
2022-12-25T22:12:31.874Z,91.12
2022-12-25T22:15:56.356Z,91.25
2022-12-25T22:19:20.247Z,91.43
2022-12-25T22:22:26.448Z,91.39
2022-12-25T22:25:38.760Z,91.33
2022-12-25T22:28:44.018Z,91.42
2022-12-25T22:31:56.188Z,91.31
2022-12-25T22:35:04.224Z,91.15
2022-12-25T22:38:07.935Z,91.14
2022-12-25T22:41:13.439Z,91.16
2022-12-25T22:44:18.111Z,91.13
2022-12-25T22:47:22.220Z,91.04
2022-12-25T22:50:27.416Z,91.21
2022-12-25T22:53:32.422Z,91.17
2022-12-25T22:56:35.791Z,91.24
2022-12-25T22:59:40.159Z,91.16
2022-12-25T23:02:44.575Z,91.20
2022-12-25T23:05:56.116Z,91.13
2022-12-25T23:09:02.067Z,91.30
2022-12-25T23:12:06.572Z,91.36
2022-12-25T23:15:09.961Z,91.42
2022-12-25T23:18:35.934Z,91.30
2022-12-25T23:22:00.920Z,91.24
2022-12-25T23:25:53.313Z,91.13
2022-12-25T23:29:15.147Z,91.06
2022-12-25T23:32:22.694Z,90.86
2022-12-25T23:35:27.881Z,90.89
2022-12-25T23:38:31.118Z,90.91
2022-12-25T23:41:35.488Z,90.98
2022-12-25T23:44:38.402Z,91.21
2022-12-25T23:47:44.157Z,91.14
2022-12-25T23:50:50.226Z,91.31
2022-12-25T23:53:53.359Z,91.50
2022-12-25T23:56:57.712Z,91.71
